Destinations Reus Air Base

Reus Air Base (LERS / REU)

Flights to Reus Air Base

Flight number From ETE Dispatch
SPY-2226 EGFF Cardiff International Airport 02:10
SPY-410 EHGG Groningen Airport Eelde 02:35

Flights from Reus Air Base

Flight number To ETE Dispatch
SPY-2227 EGFF Cardiff International Airport 02:10
SPY-411 EHGG Groningen Airport Eelde
About

Reus Air Base facts

Reus Air Base is located in Reus at an elevation of 71.0 meters or 233 feet.

Currently, Speedy Airlines serves 4 flights to and from Reus Air Base.

Detailed airport info

Route map

Weather

Current weather

METAR

METAR

Metar data retrieved Sunday, 21 July 2024 at 18:55 UTC

LERS 211830Z 27016KT 240V300 CAVOK 29/11 Q1012
Wind Temperature
16 kt 29c